Time;durP1;ratioP1;P1;durP2;ratioP2;P2;SDS_P1;SDS_P2;PMS_P1;PMS_P2;Temp;Humidity;BMP_temperature;BMP_pressure;BME280_temperature;BME280_humidity;BME280_pressure;Samples;Min_cycle;Max_cycle;Signal;HPM_P1;HPM_P2
2023/02/08 00:00:47;;;;;;;44.78;22.35;;;;;;;-0.68;73.73;101137.72;5024323;28;20079;-74
2023/02/08 00:03:13;;;;;;;35.67;20.15;;;;;;;-0.79;74.96;101135.94;5029297;28;20029;-73
2023/02/08 00:05:38;;;;;;;40.50;20.98;;;;;;;-0.82;74.43;101144.88;5022187;28;20029;-72
2023/02/08 00:08:04;;;;;;;37.20;19.55;;;;;;;-0.71;74.24;101143.19;5022387;28;21307;-74
2023/02/08 00:10:30;;;;;;;33.95;18.70;;;;;;;-0.69;74.11;101143.91;5025908;28;20482;-74
2023/02/08 00:12:55;;;;;;;38.22;22.02;;;;;;;-0.64;73.49;101141.75;5017592;28;20037;-74
2023/02/08 00:15:21;;;;;;;36.90;19.88;;;;;;;-0.71;74.40;101137.94;5017642;28;20095;-74
2023/02/08 00:17:46;;;;;;;37.40;20.40;;;;;;;-0.75;73.63;101137.38;5022308;28;20584;-75
2023/02/08 00:20:12;;;;;;;35.42;20.48;;;;;;;-0.81;74.44;101141.28;5020473;28;20425;-74
2023/02/08 00:22:37;;;;;;;34.05;20.23;;;;;;;-0.91;74.33;101142.13;5018227;28;20046;-73
2023/02/08 00:25:05;;;;;;;35.38;19.50;;;;;;;-0.82;74.25;101144.88;5022614;28;20057;-74
2023/02/08 00:27:30;;;;;;;43.42;23.15;;;;;;;-0.74;73.62;101153.94;5017152;28;20087;-74
2023/02/08 00:29:55;;;;;;;38.03;21.08;;;;;;;-0.79;74.22;101147.25;5022085;28;21814;-74
2023/02/08 00:32:21;;;;;;;34.90;20.05;;;;;;;-0.78;74.37;101138.44;5023509;28;20033;-74
2023/02/08 00:34:46;;;;;;;40.70;21.58;;;;;;;-0.73;73.56;101137.25;5019625;28;20030;-75
2023/02/08 00:37:11;;;;;;;37.35;20.45;;;;;;;-0.81;74.30;101124.75;5018289;28;20045;-74
2023/02/08 00:39:37;;;;;;;35.58;19.55;;;;;;;-0.78;73.70;101129.72;5026008;28;20021;-74
2023/02/08 00:42:02;;;;;;;38.92;19.58;;;;;;;-1.34;74.27;101123.66;5023224;28;20057;-75
2023/02/08 00:44:28;;;;;;;41.45;20.83;;;;;;;-1.47;75.67;101141.22;5017603;28;20041;-74
2023/02/08 00:46:53;;;;;;;46.05;21.42;;;;;;;-1.37;74.77;101128.25;5025525;28;20025;-75
2023/02/08 00:49:19;;;;;;;45.92;23.45;;;;;;;-2.48;75.39;101136.50;5021237;28;20034;-75
2023/02/08 00:51:44;;;;;;;38.13;19.85;;;;;;;-1.58;75.97;101138.59;5025597;28;20040;-73
2023/02/08 00:54:20;;;;;;;39.53;21.00;;;;;;;-2.10;75.48;101125.06;5023601;28;20068;-75
2023/02/08 00:56:45;;;;;;;;;;;;;;;-2.04;76.37;101132.47;5029670;28;20065;-74
2023/02/08 00:59:11;;;;;;;46.50;21.73;;;;;;;-2.84;75.77;101131.25;5022771;28;19968;-74
2023/02/08 01:01:37;;;;;;;41.80;20.33;;;;;;;-2.60;78.10;101141.78;5016411;28;20033;-74
2023/02/08 01:04:03;;;;;;;40.90;20.38;;;;;;;-1.67;77.72;101142.72;5026928;28;20044;-73
2023/02/08 01:06:28;;;;;;;41.88;22.08;;;;;;;-1.72;75.31;101136.16;5024157;28;20026;-73
2023/02/08 01:08:54;;;;;;;40.83;22.35;;;;;;;-1.57;75.29;101135.00;5023807;28;22057;-75
2023/02/08 01:11:23;;;;;;;40.25;21.25;;;;;;;-1.86;75.98;101137.19;5023292;28;20030;-72
2023/02/08 01:13:49;;;;;;;41.58;20.70;;;;;;;-2.51;74.98;101135.91;5023633;28;20090;-74
2023/02/08 01:16:20;;;;;;;45.28;21.85;;;;;;;-2.01;76.82;101124.41;5021859;28;20412;-74
2023/02/08 01:18:48;;;;;;;38.22;20.02;;;;;;;-1.31;75.84;101120.78;5024295;28;20029;-74
2023/02/08 01:21:19;;;;;;;36.47;21.90;;;;;;;-1.23;74.83;101121.03;5018688;28;20530;-74
2023/02/08 01:23:45;;;;;;;38.40;20.60;;;;;;;-1.87;75.58;101119.81;5025748;28;20068;-75
2023/02/08 01:26:12;;;;;;;38.22;20.13;;;;;;;-1.35;75.13;101119.34;5018988;28;20022;-73
2023/02/08 01:28:38;;;;;;;36.63;20.10;;;;;;;-1.19;74.72;101105.91;5022420;28;20076;-74
2023/02/08 01:31:28;;;;;;;39.05;21.40;;;;;;;-1.13;74.58;101100.19;5025597;28;20040;-73
2023/02/08 01:33:54;;;;;;;41.58;19.67;;;;;;;-1.04;74.21;101107.34;5023309;28;20033;-74
2023/02/08 01:36:20;;;;;;;39.28;19.95;;;;;;;-1.12;73.87;101091.41;5023109;28;20183;-74
2023/02/08 01:38:46;;;;;;;36.47;19.80;;;;;;;-1.10;73.03;101103.44;5024439;28;20128;-73
2023/02/08 01:41:33;;;;;;;37.05;19.95;;;;;;;-1.02;73.84;101108.91;5026453;28;20132;-74
2023/02/08 01:44:04;;;;;;;39.72;18.75;;;;;;;-1.02;73.54;101110.69;5019708;28;20041;-74
2023/02/08 01:46:31;;;;;;;36.72;20.42;;;;;;;-1.27;74.66;101105.69;5019455;28;20022;-73
2023/02/08 01:49:00;;;;;;;36.83;19.67;;;;;;;-1.12;74.10;101109.72;5031745;28;20389;-74
2023/02/08 01:51:31;;;;;;;39.60;20.23;;;;;;;-1.09;73.94;101104.25;5028321;28;20079;-73
2023/02/08 01:53:59;;;;;;;41.97;20.80;;;;;;;-1.09;73.76;101096.41;5027814;28;20029;-74
2023/02/08 01:56:35;;;;;;;39.97;20.33;;;;;;;-1.05;72.90;101098.63;5027811;28;20022;-75
2023/02/08 01:59:04;;;;;;;40.90;21.05;;;;;;;-1.22;73.29;101078.16;5065008;22;20036;-79
2023/02/08 02:01:30;;;;;;;40.78;21.48;;;;;;;-1.13;72.96;101094.94;5063485;28;20096;-79
2023/02/08 02:03:59;;;;;;;38.95;20.55;;;;;;;-1.12;72.90;101086.16;5068727;28;20131;-79
2023/02/08 02:06:29;;;;;;;37.75;19.50;;;;;;;-1.14;72.94;101082.81;5049160;28;20104;-80
2023/02/08 02:09:19;;;;;;;37.25;20.38;;;;;;;-1.22;73.04;101061.63;5069015;28;20024;-79
2023/02/08 02:11:45;;;;;;;41.03;20.67;;;;;;;-1.30;73.27;101067.44;5064293;28;20029;-79
2023/02/08 02:14:11;;;;;;;37.42;20.13;;;;;;;-1.23;73.90;101078.28;5067212;28;21905;-79
2023/02/08 02:16:36;;;;;;;35.38;20.05;;;;;;;-1.27;73.45;101071.63;5067970;28;20025;-79
2023/02/08 02:19:06;;;;;;;40.47;21.52;;;;;;;-1.19;73.50;101079.72;5049349;28;20037;-81
2023/02/08 02:21:43;;;;;;;43.08;23.38;;;;;;;-1.21;73.83;101079.00;5064594;28;20543;-80
2023/02/08 02:24:33;;;;;;;49.65;23.90;;;;;;;-1.25;72.82;101072.34;5070160;28;20028;-80
2023/02/08 02:27:23;;;;;;;40.03;22.10;;;;;;;-1.24;73.15;101084.47;5063675;28;20123;-80
2023/02/08 02:30:07;;;;;;;44.95;23.25;;;;;;;-1.24;73.44;101079.22;5052446;28;20453;-81
2023/02/08 02:33:04;;;;;;;42.72;22.70;;;;;;;-1.34;73.82;101060.78;5050462;28;20028;-80
2023/02/08 02:36:01;;;;;;;48.25;25.13;;;;;;;-1.26;73.63;101081.13;5049577;28;20045;-79
2023/02/08 02:38:41;;;;;;;43.33;21.83;;;;;;;-1.16;73.53;101085.56;5051206;28;20036;-80
2023/02/08 02:44:22;;;;;;;48.47;24.23;;;;;;;-1.35;73.84;101084.44;5052682;28;20058;-80
2023/02/08 02:47:05;;;;;;;43.47;24.15;;;;;;;-1.31;73.39;101076.25;5045306;28;20386;-80
2023/02/08 02:49:47;;;;;;;51.45;25.15;;;;;;;-1.21;72.71;101077.22;5055374;28;20029;-80
2023/02/08 02:52:32;;;;;;;45.05;22.45;;;;;;;-1.27;72.79;101076.88;5046865;28;20374;-81
2023/02/08 02:55:04;;;;;;;45.67;24.10;;;;;;;-1.28;73.21;101080.41;5046898;28;20048;-80
2023/02/08 02:57:32;;;;;;;49.17;25.75;;;;;;;-1.28;72.50;101083.88;5047169;28;20036;-80
2023/02/08 02:59:58;;;;;;;47.65;23.17;;;;;;;-1.37;72.94;101081.97;5054917;28;20048;-80
2023/02/08 03:02:26;;;;;;;46.38;23.55;;;;;;;-1.32;73.89;101084.22;5050856;28;20044;-81
2023/02/08 03:04:55;;;;;;;47.60;23.73;;;;;;;-1.29;72.98;101084.00;5048649;28;20044;-81
2023/02/08 03:07:26;;;;;;;50.88;26.02;;;;;;;-1.30;72.58;101088.41;5052926;28;20753;-80
2023/02/08 03:09:51;;;;;;;45.33;25.42;;;;;;;-1.36;73.12;101088.88;5051077;28;20313;-79
2023/02/08 03:12:35;;;;;;;49.70;25.75;;;;;;;-1.28;73.29;101083.03;5048894;28;20031;-81
2023/02/08 03:15:28;;;;;;;54.03;27.40;;;;;;;-1.31;73.03;101088.53;5053811;28;20028;-81
2023/02/08 03:18:02;;;;;;;48.15;24.08;;;;;;;-1.35;72.92;101090.53;5049614;28;20028;-81
2023/02/08 03:20:32;;;;;;;54.63;27.48;;;;;;;-2.45;73.89;101096.25;5045267;28;20482;-80
2023/02/08 03:23:20;;;;;;;47.38;25.63;;;;;;;-2.02;75.02;101100.00;5061787;28;20090;-80
2023/02/08 03:26:04;;;;;;;43.50;22.65;;;;;;;-1.59;74.02;101092.41;5046806;28;20029;-80
2023/02/08 03:28:47;;;;;;;50.20;25.65;;;;;;;-1.40;73.83;101091.84;5058734;28;20021;-81
2023/02/08 03:31:35;;;;;;;48.22;24.50;;;;;;;-1.41;72.91;101093.63;5051331;28;20322;-81
2023/02/08 03:34:27;;;;;;;50.05;26.10;;;;;;;-1.45;73.58;101092.19;5054189;28;20025;-80
2023/02/08 03:37:00;;;;;;;52.75;24.83;;;;;;;-1.53;73.35;101087.53;5048909;28;20029;-81
2023/02/08 03:39:28;;;;;;;47.20;24.83;;;;;;;-1.56;73.50;101086.94;5045062;28;20062;-80
2023/02/08 03:42:05;;;;;;;49.00;25.95;;;;;;;-1.53;72.85;101087.53;5049760;28;20033;-80
2023/02/08 03:44:35;;;;;;;46.00;23.42;;;;;;;-1.45;72.89;101097.44;5050489;28;20427;-81
2023/02/08 03:47:12;;;;;;;44.80;23.00;;;;;;;-1.51;73.10;101090.88;5042335;28;20024;-81
2023/02/08 03:49:38;;;;;;;51.05;25.27;;;;;;;-1.56;73.23;101093.00;5046543;28;20039;-80
2023/02/08 03:52:08;;;;;;;50.92;26.35;;;;;;;-1.58;72.90;101079.22;5054039;28;20037;-80
2023/02/08 03:54:56;;;;;;;49.45;24.55;;;;;;;-1.57;73.00;101086.09;5043037;28;20039;-80
2023/02/08 03:57:29;;;;;;;43.97;24.80;;;;;;;-1.48;72.56;101084.56;5036525;28;21764;-79
2023/02/08 04:00:03;;;;;;;53.17;25.73;;;;;;;-1.55;72.64;101093.81;5043128;28;20079;-79
2023/02/08 04:02:32;;;;;;;47.13;23.30;;;;;;;-1.59;73.04;101095.00;5045971;28;20044;-79
2023/02/08 04:05:00;;;;;;;45.30;23.85;;;;;;;-1.52;73.08;101097.06;5054301;28;20041;-79
2023/02/08 04:07:25;;;;;;;46.38;24.27;;;;;;;-1.54;73.00;101087.66;5047851;28;20067;-81
2023/02/08 04:09:51;;;;;;;49.08;24.98;;;;;;;-1.51;72.64;101075.16;5051118;28;20135;-80
2023/02/08 04:12:16;;;;;;;46.78;24.42;;;;;;;-1.53;72.54;101077.06;5030534;28;20044;-81
2023/02/08 04:14:42;;;;;;;50.95;25.88;;;;;;;-1.59;73.05;101067.06;5044720;28;20191;-80
2023/02/08 04:17:07;;;;;;;49.08;24.35;;;;;;;-1.59;72.85;101080.16;5021752;28;20421;-80
2023/02/08 04:19:33;;;;;;;48.55;24.95;;;;;;;-1.60;73.38;101078.50;5041795;28;20037;-80
2023/02/08 04:21:58;;;;;;;47.88;24.40;;;;;;;-1.74;73.68;101081.31;5048378;28;20036;-79
2023/02/08 04:24:23;;;;;;;50.47;25.17;;;;;;;-1.55;72.82;101089.44;5029687;28;20186;-79
2023/02/08 04:26:49;;;;;;;49.65;27.40;;;;;;;-1.61;72.68;101078.59;5047666;28;20035;-80
2023/02/08 04:29:15;;;;;;;49.17;24.27;;;;;;;-1.58;73.00;101067.91;5023609;28;20025;-80
2023/02/08 04:31:41;;;;;;;52.75;27.15;;;;;;;-1.59;72.84;101087.16;5039396;28;20090;-81
2023/02/08 04:34:06;;;;;;;49.33;25.88;;;;;;;-1.63;72.62;101070.88;5043555;28;20041;-79
2023/02/08 04:36:31;;;;;;;45.65;25.05;;;;;;;-1.52;72.29;101083.97;5046655;28;20111;-79
2023/02/08 04:38:57;;;;;;;51.13;27.20;;;;;;;-1.57;72.46;101078.25;5047054;28;20045;-79
2023/02/08 04:41:22;;;;;;;53.22;27.17;;;;;;;-1.57;72.50;101080.88;5057598;28;20043;-79
2023/02/08 04:43:48;;;;;;;51.00;24.58;;;;;;;-1.60;72.81;101064.56;5052350;28;20511;-80
2023/02/08 04:46:13;;;;;;;45.58;25.45;;;;;;;-1.64;71.96;101084.06;5047326;28;20078;-80
2023/02/08 04:48:38;;;;;;;52.25;26.55;;;;;;;-2.21;74.93;101073.56;5046691;28;20032;-80
2023/02/08 04:51:04;;;;;;;56.28;27.42;;;;;;;-1.81;73.16;101077.47;5051814;28;20029;-81
2023/02/08 04:53:29;;;;;;;56.85;28.02;;;;;;;-1.59;72.39;101090.63;5029705;28;20045;-80
2023/02/08 04:55:55;;;;;;;49.83;25.58;;;;;;;-1.68;73.02;101087.84;5043673;28;20115;-80
2023/02/08 04:58:20;;;;;;;56.45;27.30;;;;;;;-1.59;72.80;101076.69;5041827;28;20044;-81
2023/02/08 05:00:46;;;;;;;52.92;25.80;;;;;;;-1.56;72.90;101079.09;5052000;28;20373;-80
2023/02/08 05:03:12;;;;;;;53.30;27.38;;;;;;;-1.59;72.30;101079.31;5045106;28;20036;-80
2023/02/08 05:05:38;;;;;;;53.17;27.58;;;;;;;-1.59;72.56;101080.16;5048927;28;20036;-79
2023/02/08 05:08:03;;;;;;;55.75;25.55;;;;;;;-1.54;72.83;101079.81;5027025;28;20434;-79
2023/02/08 05:10:29;;;;;;;55.80;27.98;;;;;;;-1.64;72.95;101082.28;5040584;28;20055;-80
2023/02/08 05:12:54;;;;;;;56.33;26.83;;;;;;;-1.69;72.08;101065.25;5036577;28;20099;-80
2023/02/08 05:15:19;;;;;;;51.60;27.13;;;;;;;-1.73;72.12;101074.28;5041226;28;20029;-80
2023/02/08 05:17:45;;;;;;;53.65;26.77;;;;;;;-1.77;72.54;101080.72;5041290;28;20460;-80
2023/02/08 05:20:11;;;;;;;48.47;24.38;;;;;;;-1.78;72.52;101074.63;5043300;28;20037;-79
2023/02/08 05:22:37;;;;;;;53.47;26.73;;;;;;;-1.85;72.53;101068.19;5048531;28;20025;-80
2023/02/08 05:25:02;;;;;;;52.85;24.63;;;;;;;-1.91;73.04;101065.19;5049197;28;20027;-79
2023/02/08 05:27:28;;;;;;;51.80;26.40;;;;;;;-1.88;73.63;101067.59;5044559;28;20386;-79
2023/02/08 05:29:53;;;;;;;49.72;25.42;;;;;;;-1.91;73.33;101080.91;5029076;28;20044;-80
2023/02/08 05:32:19;;;;;;;48.03;25.50;;;;;;;-1.89;72.82;101053.66;5054619;28;20031;-80
2023/02/08 05:34:44;;;;;;;57.78;27.90;;;;;;;-1.82;72.64;101083.69;5029190;28;20033;-79
2023/02/08 05:37:10;;;;;;;60.97;29.35;;;;;;;-1.83;72.58;101089.00;5051680;28;20024;-78
2023/02/08 05:39:35;;;;;;;54.42;25.13;;;;;;;-1.84;73.05;101082.97;5047069;28;20046;-79
2023/02/08 05:42:00;;;;;;;52.20;26.95;;;;;;;-1.87;72.86;101077.09;5048566;28;20377;-79
2023/02/08 05:44:26;;;;;;;63.60;28.48;;;;;;;-1.93;73.14;101078.41;5031800;28;20033;-80
2023/02/08 05:46:51;;;;;;;56.33;26.98;;;;;;;-1.88;73.03;101081.50;5045264;28;20063;-79
2023/02/08 05:49:17;;;;;;;58.50;29.30;;;;;;;-1.79;72.51;101090.47;5035586;28;20481;-80
2023/02/08 05:51:43;;;;;;;53.55;27.55;;;;;;;-1.73;72.85;101096.06;5047483;28;20037;-80
2023/02/08 05:54:08;;;;;;;62.17;27.92;;;;;;;-1.75;72.49;101102.38;5043817;28;20084;-79
2023/02/08 05:56:34;;;;;;;62.35;32.25;;;;;;;-2.50;73.49;101099.19;5023442;28;20061;-80
2023/02/08 05:59:00;;;;;;;64.10;30.48;;;;;;;-3.37;76.06;101098.41;5032683;28;20397;-83
2023/02/08 06:01:26;;;;;;;53.22;26.85;;;;;;;-3.52;76.09;101099.47;5068908;28;20376;-82
2023/02/08 06:03:51;;;;;;;63.35;29.63;;;;;;;-2.23;75.16;101117.28;5037312;28;20112;-81
2023/02/08 06:06:17;;;;;;;71.05;34.25;;;;;;;-3.43;75.17;101116.28;5052341;28;20477;-81
2023/02/08 06:08:42;;;;;;;73.28;33.33;;;;;;;-4.34;77.82;101121.47;5064186;28;20032;-81
2023/02/08 06:11:07;;;;;;;70.05;32.85;;;;;;;-4.50;78.28;101115.56;5055307;28;20388;-81
2023/02/08 06:13:33;;;;;;;71.05;31.25;;;;;;;-3.31;79.03;101104.97;5059332;28;20033;-82
2023/02/08 06:15:58;;;;;;;62.00;30.20;;;;;;;-2.77;77.77;101110.75;5048165;28;20061;-82
2023/02/08 06:18:23;;;;;;;61.95;28.60;;;;;;;-2.29;74.98;101094.16;5049684;28;20128;-81
2023/02/08 06:20:52;;;;;;;59.70;29.42;;;;;;;-2.95;74.74;101109.44;5045406;28;20451;-80
2023/02/08 06:23:18;;;;;;;61.78;27.73;;;;;;;-2.35;75.30;101102.47;5050200;28;20392;-81
2023/02/08 06:25:43;;;;;;;65.88;31.88;;;;;;;-3.34;74.26;101121.69;5043521;28;20024;-81
2023/02/08 06:28:09;;;;;;;75.10;33.03;;;;;;;-2.64;75.74;101101.94;5036096;28;20575;-80
2023/02/08 06:30:36;;;;;;;68.50;33.00;;;;;;;-2.78;73.53;101112.56;5029313;28;20026;-81
2023/02/08 06:33:01;;;;;;;62.72;27.50;;;;;;;-2.11;74.07;101113.75;5061351;28;20036;-82
2023/02/08 06:35:26;;;;;;;67.53;30.48;;;;;;;-1.95;72.88;101119.56;5042367;28;20031;-81
2023/02/08 06:37:52;;;;;;;62.90;31.65;;;;;;;-2.05;73.19;101108.06;5054051;28;20445;-81
2023/02/08 06:40:17;;;;;;;53.88;28.05;;;;;;;-2.02;72.81;101117.47;5043801;28;20032;-81
2023/02/08 06:42:46;;;;;;;60.97;28.67;;;;;;;-2.07;72.61;101103.91;5061965;28;20032;-82
2023/02/08 06:45:11;;;;;;;56.35;28.42;;;;;;;-1.91;72.52;101109.69;5018764;28;20397;-81
2023/02/08 06:47:36;;;;;;;62.17;28.30;;;;;;;-1.99;72.95;101099.78;5057548;28;20037;-81
2023/02/08 06:50:02;;;;;;;63.33;28.70;;;;;;;-1.82;72.23;101119.47;5052318;28;20465;-81
2023/02/08 06:52:27;;;;;;;58.17;27.20;;;;;;;-1.80;71.62;101115.78;5054341;28;20039;-82
2023/02/08 06:54:53;;;;;;;66.28;31.42;;;;;;;-3.57;73.00;101118.97;5056612;28;20385;-82
2023/02/08 06:57:18;;;;;;;64.80;29.33;;;;;;;-3.79;75.24;101116.94;5038199;28;20119;-82
2023/02/08 06:59:44;;;;;;;68.03;32.67;;;;;;;-3.11;74.71;101104.44;5058354;28;20045;-82
2023/02/08 07:02:15;;;;;;;63.65;29.42;;;;;;;-3.14;76.23;101123.78;5045720;28;20088;-81
2023/02/08 07:04:41;;;;;;;64.03;30.13;;;;;;;-2.53;75.63;101115.09;5033745;28;20078;-82
2023/02/08 07:07:07;;;;;;;68.30;30.13;;;;;;;-2.19;73.93;101113.50;5026727;28;20056;-82
2023/02/08 07:09:34;;;;;;;58.13;29.38;;;;;;;-2.09;72.99;101108.41;5042868;28;20071;-82
2023/02/08 07:12:03;;;;;;;59.88;29.50;;;;;;;-1.85;72.33;101114.44;5036687;28;20423;-81
2023/02/08 07:14:29;;;;;;;61.78;30.88;;;;;;;-3.15;73.92;101109.06;5046130;28;20366;-81
2023/02/08 07:16:55;;;;;;;58.50;28.27;;;;;;;-2.67;75.49;101089.09;5051943;28;20063;-82
2023/02/08 07:19:20;;;;;;;69.95;33.05;;;;;;;-2.89;73.87;101101.19;5050972;28;20032;-81
2023/02/08 07:21:46;;;;;;;62.13;29.25;;;;;;;-2.27;73.87;101097.50;5042728;28;20364;-81
2023/02/08 07:24:11;;;;;;;60.33;29.80;;;;;;;-2.06;73.53;101111.66;5029807;28;20496;-80
2023/02/08 07:26:37;;;;;;;61.53;28.55;;;;;;;-1.98;72.41;101098.84;5051523;28;20481;-81
2023/02/08 07:29:03;;;;;;;57.42;27.95;;;;;;;-3.03;74.95;101079.47;5055046;28;20059;-83
2023/02/08 07:31:29;;;;;;;63.33;30.63;;;;;;;-2.08;74.66;101116.16;5056828;28;20053;-81
2023/02/08 07:33:54;;;;;;;65.43;30.13;;;;;;;-2.00;73.22;101092.88;5052908;28;20203;-81
2023/02/08 07:36:19;;;;;;;61.95;29.00;;;;;;;-1.91;73.22;101107.06;5045366;28;20037;-83
2023/02/08 07:38:45;;;;;;;59.25;29.27;;;;;;;-1.85;72.75;101109.22;5041379;28;20119;-81
2023/02/08 07:41:12;;;;;;;62.88;29.35;;;;;;;-1.74;72.50;101110.09;5054006;28;20492;-82
2023/02/08 07:43:39;;;;;;;58.30;29.77;;;;;;;-1.69;72.64;101109.75;5050143;28;20056;-81
2023/02/08 07:46:13;;;;;;;64.97;29.95;;;;;;;-1.67;72.19;101113.09;5051412;28;20070;-82
2023/02/08 07:48:38;;;;;;;60.08;29.85;;;;;;;-1.69;72.59;101101.91;5049992;28;20583;-82
2023/02/08 07:51:04;;;;;;;58.75;29.58;;;;;;;-1.68;72.93;101106.16;5049356;28;20033;-81
2023/02/08 07:53:30;;;;;;;58.55;29.35;;;;;;;-1.59;72.71;101108.94;5047294;28;20032;-81
2023/02/08 07:55:57;;;;;;;56.50;29.92;;;;;;;-1.75;72.63;101087.47;5054778;28;20024;-81
2023/02/08 07:58:22;;;;;;;60.40;27.20;;;;;;;-1.63;72.76;101099.66;5047220;28;20048;-82
2023/02/08 08:00:48;;;;;;;59.83;29.77;;;;;;;-2.24;74.26;101091.22;5050847;28;20221;-81
2023/02/08 08:03:13;;;;;;;58.63;28.55;;;;;;;-1.75;74.08;101097.94;5046626;28;20575;-82
2023/02/08 08:05:40;;;;;;;52.72;28.05;;;;;;;-1.57;73.20;101101.81;5030630;28;20179;-81
2023/02/08 08:08:06;;;;;;;60.17;30.42;;;;;;;-1.62;73.35;101101.31;5047458;28;20074;-81
2023/02/08 08:10:32;;;;;;;65.03;32.05;;;;;;;-1.44;73.20;101101.72;5049765;28;20090;-81
2023/02/08 08:12:57;;;;;;;62.28;30.38;;;;;;;-1.77;73.89;101093.81;5050828;28;20497;-81
2023/02/08 08:15:22;;;;;;;62.25;29.90;;;;;;;-1.99;75.33;101091.94;5015784;28;20051;-83
2023/02/08 08:17:48;;;;;;;62.45;30.83;;;;;;;-1.65;74.76;101085.84;5047454;28;20392;-82
2023/02/08 08:20:13;;;;;;;77.18;35.38;;;;;;;-2.15;74.71;101117.56;5058310;28;20040;-82
2023/02/08 08:22:38;;;;;;;62.75;30.17;;;;;;;-1.67;74.59;101086.91;5051550;28;20074;-81
2023/02/08 08:25:04;;;;;;;62.92;29.92;;;;;;;-1.89;75.78;101095.53;5051669;28;20074;-81
2023/02/08 08:27:29;;;;;;;54.60;30.67;;;;;;;-1.66;74.61;101099.88;5055368;28;20035;-81
2023/02/08 08:29:55;;;;;;;75.93;34.05;;;;;;;-2.25;76.97;101092.19;5052646;28;20112;-82
2023/02/08 08:32:20;;;;;;;63.17;30.27;;;;;;;-1.60;75.06;101078.50;5057466;28;20032;-82
2023/02/08 08:34:45;;;;;;;73.75;36.78;;;;;;;-1.85;74.77;101081.28;5016319;28;20025;-81
2023/02/08 08:37:11;;;;;;;63.58;32.63;;;;;;;-1.69;74.90;101091.44;5035138;28;20029;-81
2023/02/08 08:39:36;;;;;;;66.78;32.47;;;;;;;-1.51;74.49;101076.97;5049278;28;20102;-82
2023/02/08 08:42:06;;;;;;;63.10;30.20;;;;;;;-1.45;74.99;101070.41;5026142;28;20128;-81
2023/02/08 08:44:31;;;;;;;70.28;33.80;;;;;;;-2.03;75.88;101056.47;5047281;28;20025;-81
2023/02/08 08:46:58;;;;;;;71.85;37.50;;;;;;;-2.08;77.97;101076.09;5047543;28;20029;-81
2023/02/08 08:49:25;;;;;;;69.97;33.85;;;;;;;-1.74;76.54;101086.53;5051591;28;20070;-81
2023/02/08 08:51:50;;;;;;;75.80;34.90;;;;;;;-1.38;75.05;101077.69;5059205;28;20473;-81
2023/02/08 08:54:16;;;;;;;66.80;32.17;;;;;;;-1.35;75.30;101063.50;5035337;28;20032;-81
2023/02/08 08:56:41;;;;;;;69.45;33.45;;;;;;;-1.14;74.42;101069.72;5048129;28;20043;-81
2023/02/08 08:59:07;;;;;;;68.55;33.50;;;;;;;-1.24;73.94;101061.72;5055158;28;20033;-81
2023/02/08 09:01:32;;;;;;;69.32;33.05;;;;;;;-1.55;76.01;101075.50;5048228;28;20442;-81
2023/02/08 09:03:58;;;;;;;81.65;39.42;;;;;;;-2.20;76.58;101063.91;5052405;28;20040;-82
2023/02/08 09:06:23;;;;;;;68.30;32.53;;;;;;;-1.47;76.17;101069.69;5051704;28;20153;-82
2023/02/08 09:08:48;;;;;;;69.82;32.05;;;;;;;-1.23;75.71;101071.28;5045368;28;20032;-82
2023/02/08 09:11:14;;;;;;;58.20;29.60;;;;;;;-1.12;74.94;101075.66;5052459;28;20060;-82
2023/02/08 09:13:41;;;;;;;81.90;38.00;;;;;;;-1.68;76.47;101085.22;5056661;28;20104;-81
2023/02/08 09:16:17;;;;;;;63.55;32.13;;;;;;;-1.41;76.22;101069.22;5049403;28;20033;-81
2023/02/08 09:18:43;;;;;;;;;;;;;;;-1.30;76.71;101072.69;5026919;28;20087;-81
2023/02/08 09:21:11;;;;;;;76.70;34.13;;;;;;;-1.50;76.54;101057.66;5057371;28;20010;-81
2023/02/08 09:23:36;;;;;;;80.82;38.33;;;;;;;-1.70;77.71;101080.13;5061009;28;20029;-82
2023/02/08 09:26:07;;;;;;;68.60;33.42;;;;;;;-1.55;77.54;101060.63;5061112;28;20557;-81
2023/02/08 09:28:33;;;;;;;74.93;34.25;;;;;;;-1.22;76.38;101080.78;5037979;28;20034;-82
2023/02/08 09:31:00;;;;;;;77.47;36.90;;;;;;;-1.43;76.51;101071.97;5052033;28;21321;-82
2023/02/08 09:33:28;;;;;;;78.63;37.58;;;;;;;-2.52;79.31;101068.88;5054701;28;20040;-80
2023/02/08 09:35:53;;;;;;;65.45;31.50;;;;;;;-1.55;78.84;101073.72;5034598;28;20421;-83
2023/02/08 09:38:19;;;;;;;66.93;32.00;;;;;;;-1.10;76.98;101090.31;5036365;28;20076;-83
2023/02/08 09:41:21;;;;;;;64.28;31.30;;;;;;;-1.15;75.86;101078.50;5044892;28;20025;-81
2023/02/08 09:44:08;;;;;;;75.82;32.78;;;;;;;-0.94;75.62;101080.28;5065632;28;20049;-81
2023/02/08 09:46:39;;;;;;;73.00;35.63;;;;;;;-1.55;77.27;101054.56;5049037;28;20485;-81
2023/02/08 09:49:13;;;;;;;68.82;33.45;;;;;;;-1.19;77.28;101074.47;5049671;28;20068;-81
2023/02/08 09:51:43;;;;;;;65.78;31.98;;;;;;;-1.13;77.46;101081.84;5050763;28;20025;-81
2023/02/08 09:54:34;;;;;;;68.97;32.78;;;;;;;-1.17;76.79;101086.50;5051466;28;20082;-81
2023/02/08 09:57:07;;;;;;;75.55;37.45;;;;;;;-1.63;77.45;101076.09;5046140;28;20028;-81
2023/02/08 09:59:34;;;;;;;61.67;32.63;;;;;;;-1.53;78.80;101065.78;5048483;28;20048;-81
2023/02/08 10:02:30;;;;;;;76.28;36.97;;;;;;;-1.31;77.62;101080.66;5045981;28;20028;-80
2023/02/08 10:05:13;;;;;;;65.93;31.98;;;;;;;-1.05;77.21;101071.63;5041090;28;20036;-80
2023/02/08 10:07:39;;;;;;;78.38;37.28;;;;;;;-1.68;78.38;101065.13;5053726;28;20037;-80
2023/02/08 10:10:12;;;;;;;76.13;38.72;;;;;;;-1.35;78.24;101063.50;5050428;28;20029;-80
2023/02/08 10:12:50;;;;;;;68.78;32.38;;;;;;;-1.13;77.77;101079.22;5053293;28;20033;-80
2023/02/08 10:15:38;;;;;;;73.68;33.83;;;;;;;-0.98;76.89;101057.06;5054293;28;20043;-81
2023/02/08 10:18:23;;;;;;;83.90;39.53;;;;;;;-1.16;76.95;101072.47;5053588;28;20029;-81
2023/02/08 10:21:36;;;;;;;100.55;51.97;;;;;;;-0.96;77.67;101061.25;5054121;28;20029;-80
2023/02/08 10:24:22;;;;;;;77.20;37.47;;;;;;;-1.09;78.04;101060.53;5005510;28;20116;-81
2023/02/08 10:27:04;;;;;;;71.13;32.38;;;;;;;-0.89;77.65;101046.69;5016986;28;20034;-81
2023/02/08 10:29:40;;;;;;;75.95;36.92;;;;;;;-0.98;77.31;101036.94;5049345;28;20040;-81
2023/02/08 10:32:24;;;;;;;;;;;;;;;-0.84;77.54;101046.34;5053601;28;20116;-81
2023/02/08 10:34:55;;;;;;;63.38;31.27;;;;;;;-0.66;77.31;101051.91;5049741;28;20438;-81
2023/02/08 10:37:29;;;;;;;68.90;33.50;;;;;;;-0.76;77.67;101036.06;5037743;28;20033;-82
2023/02/08 10:39:56;;;;;;;69.10;30.75;;;;;;;-0.91;78.24;101040.75;5055977;28;20085;-80
2023/02/08 10:42:25;;;;;;;60.65;31.63;;;;;;;-0.80;77.23;101034.66;5015925;28;20044;-81
2023/02/08 10:45:07;;;;;;;77.97;36.30;;;;;;;-0.78;77.58;101033.59;5056518;28;20032;-81
2023/02/08 10:47:45;;;;;;;64.97;31.42;;;;;;;-0.67;77.70;101029.25;5048939;28;20036;-81
2023/02/08 10:50:33;;;;;;;66.55;32.42;;;;;;;-1.24;78.10;101032.06;5055210;28;20038;-82
2023/02/08 10:52:58;;;;;;;73.07;35.10;;;;;;;-1.07;78.35;101027.19;5056298;28;20040;-81
2023/02/08 10:55:24;;;;;;;70.38;33.60;;;;;;;-1.46;77.78;101030.28;5056994;28;20064;-82
2023/02/08 10:57:54;;;;;;;71.43;33.13;;;;;;;-1.90;78.32;101019.78;5056769;28;20028;-81
2023/02/08 11:00:25;;;;;;;64.95;33.22;;;;;;;-1.77;79.26;101028.38;5053272;28;20032;-81
2023/02/08 11:02:51;;;;;;;66.85;33.17;;;;;;;-1.27;80.00;101024.47;5054295;28;20036;-81
2023/02/08 11:05:31;;;;;;;59.25;33.05;;;;;;;-1.12;78.80;101020.66;5056901;28;20042;-82
2023/02/08 11:08:16;;;;;;;61.97;29.60;;;;;;;-1.68;77.12;101030.25;5066573;28;20036;-81
2023/02/08 11:11:06;;;;;;;78.65;34.58;;;;;;;-1.19;79.07;101019.47;5043294;28;20033;-81
2023/02/08 11:13:52;;;;;;;65.70;31.70;;;;;;;-1.25;76.85;101017.31;5057205;28;20021;-81
2023/02/08 11:16:22;;;;;;;;;;;;;;;-1.18;78.18;101011.47;5058424;28;20029;-82
2023/02/08 11:19:04;;;;;;;55.28;28.08;;;;;;;-1.20;78.57;101000.28;5053079;28;20373;-82
2023/02/08 11:21:39;;;;;;;56.35;27.27;;;;;;;-1.33;76.77;101007.44;5040458;28;21479;-81
2023/02/08 11:24:14;;;;;;;64.30;30.83;;;;;;;-1.47;76.66;101002.44;5067315;28;20069;-82